Disclaimer

Please do not use the information listed here in-flight or in-navigation, as they are not provided to us by the airports but are provided by volunteers, so they might be outdated.

Search


Regions


Airport information page

Radio informations:
TIMEHRI TWR - 118.3 MHz
Ground (GND) - 121.7 MHz
TIMEHRI APP - 119.4 MHz

Airport informations:
Latitude: 06° 29' 54.79" N
Longitude: 058° 15' 14.83" W
Elevation: 95 feet - 29 meters
Operating hours: 24 hour operations
Operating agency: Civil government, landing fees and diplomatic clearance may be required
Timezone: UTC-4
Fuel: Jet A1+, Jet A1 with icing inhibitor.

Runway information:
06/24 - 7448 x 148 feet< - >2270 x 45 meters
11/29 - 5002 x 148 feet< - >1525 x 45 meters

Recent METARs:
SYCJ 202100Z 06010KT 9999 FEW014CB SCT034 BKN100 27/24 Q1009 CB-W NOSIG
SYCJ 202100Z 06010KT 9999 FEW014CB SCT034 BKN100 27/24 Q1009 CB-W NOSIG
SYCJ 202200Z 05006KT 9999 FEW014CB BKN100 26/24 Q1009 CB WSW NOSIG

Airport on the map: